createdAt,value
2019-01-15T00:04:59.277Z,10.37
2019-01-15T00:10:06.273Z,10.07
2019-01-15T00:15:12.051Z,9.70
2019-01-15T00:20:17.449Z,16.63
2019-01-15T00:25:22.642Z,8.37
2019-01-15T00:30:27.862Z,9.80
2019-01-15T00:35:33.060Z,12.50
2019-01-15T00:40:38.290Z,7.37
2019-01-15T00:45:43.896Z,10.83
2019-01-15T00:50:49.092Z,14.60
2019-01-15T00:55:55.385Z,13.40
2019-01-15T01:01:00.657Z,13.73
2019-01-15T01:06:06.229Z,14.27
2019-01-15T01:11:11.519Z,6.20
2019-01-15T01:16:16.980Z,7.50
2019-01-15T01:21:22.188Z,10.37
2019-01-15T01:26:27.384Z,9.87
2019-01-15T01:31:32.685Z,13.57
2019-01-15T01:36:37.936Z,10.00
2019-01-15T01:41:43.226Z,10.00
2019-01-15T01:46:48.788Z,16.23
2019-01-15T01:51:53.983Z,13.37
2019-01-15T01:56:59.816Z,16.60
2019-01-15T02:02:05.212Z,7.97
2019-01-15T02:07:11.091Z,9.70
2019-01-15T02:12:16.657Z,14.97
2019-01-15T02:17:21.890Z,11.43
2019-01-15T02:22:27.087Z,11.73
2019-01-15T02:27:32.560Z,12.37
2019-01-15T02:32:37.749Z,9.57
2019-01-15T02:37:43.055Z,14.10
2019-01-15T02:42:48.252Z,11.00
2019-01-15T02:47:53.539Z,7.27
2019-01-15T02:52:58.860Z,10.30
2019-01-15T02:58:04.055Z,11.67
2019-01-15T03:03:09.678Z,11.77
2019-01-15T03:08:14.963Z,4.67
2019-01-15T03:13:20.856Z,7.97
2019-01-15T03:18:26.414Z,11.90
2019-01-15T03:23:31.602Z,16.90
2019-01-15T03:28:36.798Z,11.43
2019-01-15T03:33:42.706Z,13.63
2019-01-15T03:38:48.277Z,13.07
2019-01-15T03:43:53.792Z,8.83
2019-01-15T03:48:59.320Z,14.33
2019-01-15T03:54:04.855Z,10.77
2019-01-15T03:59:10.129Z,12.27
2019-01-15T04:04:15.635Z,13.13
2019-01-15T04:09:20.933Z,8.07
2019-01-15T04:14:26.621Z,18.50
2019-01-15T04:19:32.113Z,10.40
2019-01-15T04:24:38.124Z,9.37
2019-01-15T04:29:43.672Z,9.30
2019-01-15T04:34:49.362Z,11.27
2019-01-15T04:39:54.518Z,7.07
2019-01-15T04:45:00.977Z,9.43
2019-01-15T04:50:06.704Z,12.07
2019-01-15T04:55:12.441Z,7.47
2019-01-15T05:00:18.599Z,14.10
2019-01-15T05:05:25.143Z,13.83
2019-01-15T05:10:30.335Z,8.57
2019-01-15T05:15:35.501Z,9.60
2019-01-15T05:20:40.760Z,11.27
2019-01-15T05:25:45.949Z,9.20
2019-01-15T05:30:51.139Z,11.90
2019-01-15T05:35:57.400Z,11.13
2019-01-15T05:41:02.996Z,7.67
2019-01-15T05:46:08.179Z,7.57
2019-01-15T05:51:18.572Z,8.50
2019-01-15T05:56:23.769Z,9.73
2019-01-15T06:01:30.106Z,10.03
2019-01-15T06:06:35.342Z,7.93
2019-01-15T06:11:40.672Z,9.13
2019-01-15T06:16:46.137Z,12.50
2019-01-15T06:21:51.619Z,6.73
2019-01-15T06:26:57.049Z,12.73
2019-01-15T06:32:02.610Z,9.30
2019-01-15T06:37:07.799Z,7.37
2019-01-15T06:42:12.988Z,4.67
2019-01-15T06:47:18.567Z,11.20
2019-01-15T06:52:23.769Z,7.00
2019-01-15T06:57:29.622Z,7.63
2019-01-15T07:02:34.863Z,7.23
2019-01-15T07:07:40.905Z,10.80
2019-01-15T07:12:46.209Z,6.77
2019-01-15T07:17:51.387Z,8.83
2019-01-15T07:22:56.956Z,8.03
2019-01-15T07:28:02.676Z,8.17
2019-01-15T07:33:08.781Z,9.03
2019-01-15T07:38:13.963Z,7.47
2019-01-15T07:43:19.130Z,9.73
2019-01-15T07:48:24.313Z,4.93
2019-01-15T07:53:29.799Z,5.47
2019-01-15T07:58:35.013Z,8.63
2019-01-15T08:03:40.261Z,6.23
2019-01-15T08:08:46.180Z,9.20
2019-01-15T08:13:51.630Z,9.40
2019-01-15T08:18:56.923Z,9.77
2019-01-15T08:24:02.411Z,4.60
2019-01-15T08:29:07.692Z,7.27
2019-01-15T08:34:12.883Z,6.47
2019-01-15T08:39:18.376Z,5.87
2019-01-15T08:44:24.425Z,5.90
2019-01-15T08:49:29.612Z,8.37
2019-01-15T08:54:34.834Z,8.97
2019-01-15T08:59:41.062Z,6.07
2019-01-15T09:04:46.224Z,5.93
2019-01-15T09:09:51.788Z,10.33
2019-01-15T09:14:57.298Z,7.60
2019-01-15T09:20:02.828Z,8.07
2019-01-15T09:25:08.148Z,7.73
2019-01-15T09:30:18.635Z,8.97
2019-01-15T09:35:23.807Z,7.93
2019-01-15T09:40:29.120Z,5.90
2019-01-15T09:45:34.811Z,5.03
2019-01-15T09:50:40.548Z,7.63
2019-01-15T09:55:45.720Z,5.87
2019-01-15T10:00:50.935Z,6.00
2019-01-15T10:05:56.144Z,4.57
2019-01-15T10:11:01.325Z,5.17
2019-01-15T10:16:06.607Z,3.90
2019-01-15T10:21:11.830Z,5.97
2019-01-15T10:26:17.022Z,5.17
2019-01-15T10:31:58.287Z,8.13
2019-01-15T10:37:01.955Z,5.00
2019-01-15T10:42:07.580Z,5.57
2019-01-15T10:47:13.733Z,8.30
2019-01-15T10:52:19.047Z,5.57
2019-01-15T10:57:24.223Z,5.80
2019-01-15T11:02:29.780Z,5.37
2019-01-15T11:07:35.293Z,4.60
2019-01-15T11:12:40.602Z,3.77
2019-01-15T11:17:46.205Z,3.93
2019-01-15T11:22:51.385Z,4.73
2019-01-15T11:27:56.963Z,5.07
2019-01-15T11:33:02.184Z,4.37
2019-01-15T11:38:07.403Z,3.87
2019-01-15T11:43:12.881Z,4.10
2019-01-15T11:48:18.060Z,5.60
2019-01-15T11:53:23.261Z,4.10
2019-01-15T11:58:28.441Z,4.83
2019-01-15T12:03:52.499Z,4.60
2019-01-15T12:09:19.416Z,4.27
2019-01-15T12:14:36.189Z,5.97
2019-01-15T12:19:52.337Z,5.67
2019-01-15T12:25:21.622Z,3.70
2019-01-15T12:30:44.907Z,4.33
2019-01-15T12:36:01.627Z,4.30
2019-01-15T12:41:41.233Z,3.67
2019-01-15T12:46:55.558Z,5.93
2019-01-15T12:52:18.835Z,5.93
2019-01-15T12:57:37.513Z,3.60
2019-01-15T13:03:04.981Z,4.67
2019-01-15T13:08:38.507Z,3.03
2019-01-15T13:14:02.755Z,6.30
2019-01-15T13:19:36.153Z,5.60
2019-01-15T13:24:54.278Z,5.33
2019-01-15T13:30:17.127Z,6.27
2019-01-15T13:35:44.044Z,6.13
2019-01-15T13:41:08.552Z,5.60
2019-01-15T13:46:51.160Z,7.53
2019-01-15T13:52:16.858Z,5.80
2019-01-15T13:57:59.556Z,5.87
2019-01-15T14:03:31.040Z,5.63
2019-01-15T14:08:47.753Z,7.70
2019-01-15T14:14:11.907Z,3.50
2019-01-15T14:19:40.271Z,6.30
2019-01-15T14:24:58.763Z,5.43
2019-01-15T14:30:39.427Z,6.97
2019-01-15T14:36:03.867Z,6.23
2019-01-15T14:41:34.232Z,6.23
2019-01-15T14:46:57.218Z,8.20
2019-01-15T14:52:22.709Z,6.47
2019-01-15T14:57:49.916Z,6.53
2019-01-15T15:03:10.296Z,7.30
2019-01-15T15:08:34.632Z,9.33
2019-01-15T15:13:58.075Z,6.03
2019-01-15T15:19:40.848Z,6.23
2019-01-15T15:25:00.622Z,8.30
2019-01-15T15:30:30.825Z,9.40
2019-01-15T15:35:53.914Z,9.47
2019-01-15T15:41:13.524Z,11.07
2019-01-15T15:46:50.782Z,8.27
2019-01-15T15:52:07.139Z,8.97
2019-01-15T15:57:38.848Z,5.77
2019-01-15T16:03:09.486Z,7.43
2019-01-15T16:08:28.268Z,7.83
2019-01-15T16:13:50.350Z,7.63
2019-01-15T16:19:23.975Z,7.80
2019-01-15T16:24:40.246Z,8.70
2019-01-15T16:30:03.264Z,7.00
2019-01-15T16:35:26.107Z,9.23
2019-01-15T16:40:40.599Z,6.70
2019-01-15T16:46:03.446Z,6.97
2019-01-15T16:51:25.086Z,7.17
2019-01-15T16:56:43.245Z,7.90
2019-01-15T17:02:01.760Z,8.03
2019-01-15T17:07:25.902Z,8.33
2019-01-15T17:12:47.454Z,6.23
2019-01-15T17:18:20.725Z,7.23
2019-01-15T17:23:54.021Z,8.73
2019-01-15T17:29:07.392Z,7.03
2019-01-15T17:34:30.387Z,8.63
2019-01-15T17:39:53.375Z,7.00
2019-01-15T17:45:16.433Z,6.33
2019-01-15T17:50:39.219Z,5.97
2019-01-15T17:56:01.815Z,8.67
2019-01-15T18:01:28.914Z,4.30
2019-01-15T18:07:06.131Z,6.67
2019-01-15T18:12:29.295Z,5.93
2019-01-15T18:17:57.037Z,5.80
2019-01-15T18:23:26.705Z,6.07
2019-01-15T18:29:02.164Z,4.33
2019-01-15T18:34:28.536Z,3.93
2019-01-15T18:40:01.517Z,4.37
2019-01-15T18:45:33.729Z,5.47
2019-01-15T18:50:57.177Z,5.27
2019-01-15T18:56:14.088Z,5.13
2019-01-15T19:01:38.364Z,3.83
2019-01-15T19:07:00.071Z,4.57
2019-01-15T19:12:20.992Z,5.33
2019-01-15T19:17:41.496Z,3.37
2019-01-15T19:23:18.405Z,4.70
2019-01-15T19:28:33.781Z,4.67
2019-01-15T19:33:57.369Z,4.50
2019-01-15T19:39:25.571Z,3.53
2019-01-15T19:45:02.038Z,4.27
2019-01-15T19:50:24.088Z,3.20
2019-01-15T19:55:48.236Z,4.93
2019-01-15T20:01:01.535Z,4.30
2019-01-15T20:06:14.921Z,3.37
2019-01-15T20:11:38.806Z,3.77
2019-01-15T20:16:54.582Z,3.07
2019-01-15T20:22:17.372Z,2.17
2019-01-15T20:27:51.384Z,3.70
2019-01-15T20:33:28.110Z,2.80
2019-01-15T20:38:43.271Z,2.50
2019-01-15T20:44:26.011Z,2.27
2019-01-15T20:49:53.368Z,3.23
2019-01-15T20:55:26.404Z,2.73
2019-01-15T21:00:42.590Z,2.53
2019-01-15T21:06:16.203Z,2.57
2019-01-15T21:11:46.246Z,3.90
2019-01-15T21:17:10.401Z,3.03
2019-01-15T21:22:28.008Z,3.43
2019-01-15T21:28:07.609Z,3.30
2019-01-15T21:33:28.896Z,3.80
2019-01-15T21:38:50.643Z,3.83
2019-01-15T21:44:09.726Z,3.70
2019-01-15T21:49:48.952Z,3.70
2019-01-15T21:55:11.945Z,4.57
2019-01-15T22:00:32.970Z,5.37
2019-01-15T22:05:47.137Z,3.60
2019-01-15T22:11:10.468Z,5.00
2019-01-15T22:16:52.787Z,3.07
2019-01-15T22:22:35.471Z,2.97
2019-01-15T22:28:07.728Z,4.90
2019-01-15T22:33:31.403Z,3.73
2019-01-15T22:38:54.507Z,3.00
2019-01-15T22:44:11.799Z,4.40
2019-01-15T22:49:43.191Z,4.57
2019-01-15T22:55:07.662Z,4.23
2019-01-15T23:00:40.062Z,3.90
2019-01-15T23:06:03.283Z,4.07
2019-01-15T23:11:27.451Z,3.53
2019-01-15T23:16:53.456Z,3.57
2019-01-15T23:22:20.625Z,4.97
2019-01-15T23:27:46.980Z,3.27
2019-01-15T23:33:19.067Z,3.10
2019-01-15T23:38:37.114Z,3.80
2019-01-15T23:43:56.799Z,2.97
2019-01-15T23:49:30.050Z,3.30
2019-01-15T23:54:53.141Z,3.30
